sensor_id;sensor_type;location;lat;lon;timestamp;P1;durP1;ratioP1;P2;durP2;ratioP2
73893;SDS011;62699;50.534;12.784;2022-11-13T00:02:38;10.48;;;5.30;;
73893;SDS011;62699;50.534;12.784;2022-11-13T00:07:39;11.55;;;4.80;;
73893;SDS011;62699;50.534;12.784;2022-11-13T00:12:39;7.75;;;5.13;;
73893;SDS011;62699;50.534;12.784;2022-11-13T00:17:39;7.48;;;4.10;;
73893;SDS011;62699;50.534;12.784;2022-11-13T00:22:40;7.65;;;3.90;;
73893;SDS011;62699;50.534;12.784;2022-11-13T00:27:40;8.38;;;4.38;;
73893;SDS011;62699;50.534;12.784;2022-11-13T00:32:40;6.75;;;4.00;;
73893;SDS011;62699;50.534;12.784;2022-11-13T00:37:40;7.20;;;4.25;;
73893;SDS011;62699;50.534;12.784;2022-11-13T00:42:41;6.72;;;3.60;;
73893;SDS011;62699;50.534;12.784;2022-11-13T00:47:41;6.28;;;4.28;;
73893;SDS011;62699;50.534;12.784;2022-11-13T00:52:41;8.05;;;3.80;;
73893;SDS011;62699;50.534;12.784;2022-11-13T00:57:41;8.70;;;4.53;;
73893;SDS011;62699;50.534;12.784;2022-11-13T01:02:42;9.00;;;4.18;;
73893;SDS011;62699;50.534;12.784;2022-11-13T01:07:42;6.55;;;3.47;;
73893;SDS011;62699;50.534;12.784;2022-11-13T01:12:42;6.78;;;3.28;;
73893;SDS011;62699;50.534;12.784;2022-11-13T01:17:43;5.50;;;3.00;;
73893;SDS011;62699;50.534;12.784;2022-11-13T01:22:43;7.80;;;3.90;;
73893;SDS011;62699;50.534;12.784;2022-11-13T01:27:43;6.57;;;3.55;;
73893;SDS011;62699;50.534;12.784;2022-11-13T01:32:44;5.35;;;3.22;;
73893;SDS011;62699;50.534;12.784;2022-11-13T01:37:44;6.43;;;3.38;;
73893;SDS011;62699;50.534;12.784;2022-11-13T01:42:44;5.13;;;3.03;;
73893;SDS011;62699;50.534;12.784;2022-11-13T01:47:45;5.05;;;3.13;;
73893;SDS011;62699;50.534;12.784;2022-11-13T01:52:45;5.80;;;3.42;;
73893;SDS011;62699;50.534;12.784;2022-11-13T01:57:47;6.70;;;3.38;;
73893;SDS011;62699;50.534;12.784;2022-11-13T02:02:47;5.72;;;3.28;;
73893;SDS011;62699;50.534;12.784;2022-11-13T02:07:47;5.85;;;3.38;;
73893;SDS011;62699;50.534;12.784;2022-11-13T02:12:49;6.38;;;2.85;;
73893;SDS011;62699;50.534;12.784;2022-11-13T02:17:52;5.78;;;2.67;;
73893;SDS011;62699;50.534;12.784;2022-11-13T02:33:42;3.75;;;2.40;;
73893;SDS011;62699;50.534;12.784;2022-11-13T02:38:43;4.68;;;2.70;;
73893;SDS011;62699;50.534;12.784;2022-11-13T02:43:43;3.47;;;2.47;;
73893;SDS011;62699;50.534;12.784;2022-11-13T02:48:44;4.80;;;2.95;;
73893;SDS011;62699;50.534;12.784;2022-11-13T02:53:44;4.16;;;2.70;;
73893;SDS011;62699;50.534;12.784;2022-11-13T02:58:44;3.35;;;2.50;;
73893;SDS011;62699;50.534;12.784;2022-11-13T03:03:45;4.35;;;2.58;;
73893;SDS011;62699;50.534;12.784;2022-11-13T03:08:45;5.13;;;2.97;;
73893;SDS011;62699;50.534;12.784;2022-11-13T03:13:45;6.05;;;2.53;;
73893;SDS011;62699;50.534;12.784;2022-11-13T03:18:46;4.63;;;2.60;;
73893;SDS011;62699;50.534;12.784;2022-11-13T03:23:46;2.65;;;2.13;;
73893;SDS011;62699;50.534;12.784;2022-11-13T03:28:47;5.43;;;2.30;;
73893;SDS011;62699;50.534;12.784;2022-11-13T03:33:47;5.32;;;2.33;;
73893;SDS011;62699;50.534;12.784;2022-11-13T03:38:47;4.90;;;2.17;;
73893;SDS011;62699;50.534;12.784;2022-11-13T03:43:48;3.72;;;2.30;;
73893;SDS011;62699;50.534;12.784;2022-11-13T03:48:48;3.15;;;2.30;;
73893;SDS011;62699;50.534;12.784;2022-11-13T03:53:49;3.35;;;2.58;;
73893;SDS011;62699;50.534;12.784;2022-11-13T03:58:49;2.28;;;2.00;;
73893;SDS011;62699;50.534;12.784;2022-11-13T04:03:49;5.25;;;2.63;;
73893;SDS011;62699;50.534;12.784;2022-11-13T04:08:50;2.92;;;2.28;;
73893;SDS011;62699;50.534;12.784;2022-11-13T04:14:03;4.72;;;2.20;;
73893;SDS011;62699;50.534;12.784;2022-11-13T04:19:04;3.45;;;2.20;;
73893;SDS011;62699;50.534;12.784;2022-11-13T04:24:04;6.68;;;2.30;;
73893;SDS011;62699;50.534;12.784;2022-11-13T04:29:04;4.30;;;2.30;;
73893;SDS011;62699;50.534;12.784;2022-11-13T04:34:05;7.72;;;2.58;;
73893;SDS011;62699;50.534;12.784;2022-11-13T04:39:05;2.60;;;2.22;;
73893;SDS011;62699;50.534;12.784;2022-11-13T04:44:06;4.20;;;2.28;;
73893;SDS011;62699;50.534;12.784;2022-11-13T04:49:06;3.40;;;2.33;;
73893;SDS011;62699;50.534;12.784;2022-11-13T04:54:06;2.72;;;2.25;;
73893;SDS011;62699;50.534;12.784;2022-11-13T04:59:07;4.63;;;2.28;;
73893;SDS011;62699;50.534;12.784;2022-11-13T05:04:11;4.35;;;2.42;;
73893;SDS011;62699;50.534;12.784;2022-11-13T05:09:12;3.28;;;2.33;;
73893;SDS011;62699;50.534;12.784;2022-11-13T05:14:26;5.18;;;2.40;;
73893;SDS011;62699;50.534;12.784;2022-11-13T05:19:27;3.10;;;1.90;;
73893;SDS011;62699;50.534;12.784;2022-11-13T05:24:27;3.85;;;2.28;;
73893;SDS011;62699;50.534;12.784;2022-11-13T05:29:28;6.70;;;3.33;;
73893;SDS011;62699;50.534;12.784;2022-11-13T05:34:28;5.88;;;3.35;;
73893;SDS011;62699;50.534;12.784;2022-11-13T05:39:32;2.40;;;2.05;;
73893;SDS011;62699;50.534;12.784;2022-11-13T05:44:32;3.95;;;2.45;;
73893;SDS011;62699;50.534;12.784;2022-11-13T05:49:32;3.08;;;2.17;;
73893;SDS011;62699;50.534;12.784;2022-11-13T05:54:33;4.53;;;2.50;;
73893;SDS011;62699;50.534;12.784;2022-11-13T05:59:33;2.70;;;2.10;;
73893;SDS011;62699;50.534;12.784;2022-11-13T06:04:33;3.50;;;2.47;;
73893;SDS011;62699;50.534;12.784;2022-11-13T06:09:34;2.70;;;2.40;;
73893;SDS011;62699;50.534;12.784;2022-11-13T06:14:34;3.17;;;2.55;;
73893;SDS011;62699;50.534;12.784;2022-11-13T06:19:35;5.00;;;2.55;;
73893;SDS011;62699;50.534;12.784;2022-11-13T06:24:35;3.63;;;2.17;;
73893;SDS011;62699;50.534;12.784;2022-11-13T06:29:35;5.40;;;2.65;;
73893;SDS011;62699;50.534;12.784;2022-11-13T06:34:36;4.60;;;1.90;;
73893;SDS011;62699;50.534;12.784;2022-11-13T06:39:36;3.45;;;2.25;;
73893;SDS011;62699;50.534;12.784;2022-11-13T06:44:36;2.10;;;1.90;;
73893;SDS011;62699;50.534;12.784;2022-11-13T06:49:37;7.90;;;4.35;;
73893;SDS011;62699;50.534;12.784;2022-11-13T06:54:44;6.72;;;3.88;;
73893;SDS011;62699;50.534;12.784;2022-11-13T06:59:45;5.25;;;3.55;;
73893;SDS011;62699;50.534;12.784;2022-11-13T07:04:45;6.72;;;4.05;;
73893;SDS011;62699;50.534;12.784;2022-11-13T07:09:45;5.63;;;3.42;;
73893;SDS011;62699;50.534;12.784;2022-11-13T07:14:46;4.80;;;2.83;;
73893;SDS011;62699;50.534;12.784;2022-11-13T07:19:46;2.88;;;2.30;;
73893;SDS011;62699;50.534;12.784;2022-11-13T07:24:46;10.27;;;4.43;;
73893;SDS011;62699;50.534;12.784;2022-11-13T07:29:47;15.50;;;7.07;;
73893;SDS011;62699;50.534;12.784;2022-11-13T07:34:47;4.30;;;2.28;;
73893;SDS011;62699;50.534;12.784;2022-11-13T07:39:47;4.20;;;2.50;;
73893;SDS011;62699;50.534;12.784;2022-11-13T07:44:48;4.13;;;1.70;;
73893;SDS011;62699;50.534;12.784;2022-11-13T07:49:48;7.07;;;3.60;;
73893;SDS011;62699;50.534;12.784;2022-11-13T07:54:49;8.82;;;4.85;;
73893;SDS011;62699;50.534;12.784;2022-11-13T07:59:49;7.10;;;3.63;;
73893;SDS011;62699;50.534;12.784;2022-11-13T08:04:49;8.18;;;4.15;;
73893;SDS011;62699;50.534;12.784;2022-11-13T08:09:50;7.38;;;3.63;;
73893;SDS011;62699;50.534;12.784;2022-11-13T08:14:50;10.70;;;4.65;;
73893;SDS011;62699;50.534;12.784;2022-11-13T08:19:50;10.40;;;4.93;;
73893;SDS011;62699;50.534;12.784;2022-11-13T08:24:50;8.30;;;4.27;;
73893;SDS011;62699;50.534;12.784;2022-11-13T08:29:58;7.00;;;2.63;;
73893;SDS011;62699;50.534;12.784;2022-11-13T08:34:58;4.93;;;2.53;;
73893;SDS011;62699;50.534;12.784;2022-11-13T08:39:58;8.05;;;3.50;;
73893;SDS011;62699;50.534;12.784;2022-11-13T08:44:59;6.70;;;2.75;;
73893;SDS011;62699;50.534;12.784;2022-11-13T08:49:59;8.45;;;3.60;;
73893;SDS011;62699;50.534;12.784;2022-11-13T08:54:59;6.93;;;3.38;;
73893;SDS011;62699;50.534;12.784;2022-11-13T09:00:00;9.43;;;4.35;;
73893;SDS011;62699;50.534;12.784;2022-11-13T09:05:00;9.25;;;4.15;;
73893;SDS011;62699;50.534;12.784;2022-11-13T09:10:11;8.00;;;4.03;;
73893;SDS011;62699;50.534;12.784;2022-11-13T09:15:24;6.95;;;3.55;;
73893;SDS011;62699;50.534;12.784;2022-11-13T09:20:25;7.10;;;4.03;;
73893;SDS011;62699;50.534;12.784;2022-11-13T09:25:30;8.13;;;4.03;;
73893;SDS011;62699;50.534;12.784;2022-11-13T09:30:32;11.05;;;4.80;;
73893;SDS011;62699;50.534;12.784;2022-11-13T09:35:33;11.43;;;5.97;;
73893;SDS011;62699;50.534;12.784;2022-11-13T09:40:34;7.28;;;3.90;;
73893;SDS011;62699;50.534;12.784;2022-11-13T09:51:19;8.68;;;4.07;;
73893;SDS011;62699;50.534;12.784;2022-11-13T10:07:12;11.95;;;4.97;;
73893;SDS011;62699;50.534;12.784;2022-11-13T10:12:22;12.00;;;5.78;;
73893;SDS011;62699;50.534;12.784;2022-11-13T10:17:24;9.27;;;4.93;;
73893;SDS011;62699;50.534;12.784;2022-11-13T10:22:33;7.70;;;3.73;;
73893;SDS011;62699;50.534;12.784;2022-11-13T10:27:38;7.82;;;3.50;;
73893;SDS011;62699;50.534;12.784;2022-11-13T10:32:39;28.52;;;15.38;;
73893;SDS011;62699;50.534;12.784;2022-11-13T10:37:59;13.75;;;7.30;;
73893;SDS011;62699;50.534;12.784;2022-11-13T10:43:03;9.73;;;3.88;;
73893;SDS011;62699;50.534;12.784;2022-11-13T10:48:25;8.43;;;3.75;;
73893;SDS011;62699;50.534;12.784;2022-11-13T10:53:37;6.82;;;2.92;;
73893;SDS011;62699;50.534;12.784;2022-11-13T10:58:39;5.35;;;2.55;;
73893;SDS011;62699;50.534;12.784;2022-11-13T11:03:47;4.88;;;2.40;;
73893;SDS011;62699;50.534;12.784;2022-11-13T11:08:48;5.70;;;2.40;;
73893;SDS011;62699;50.534;12.784;2022-11-13T11:13:48;5.95;;;2.67;;
73893;SDS011;62699;50.534;12.784;2022-11-13T11:18:56;4.75;;;2.20;;
73893;SDS011;62699;50.534;12.784;2022-11-13T11:24:13;6.60;;;2.95;;
73893;SDS011;62699;50.534;12.784;2022-11-13T11:34:54;2.38;;;1.40;;
73893;SDS011;62699;50.534;12.784;2022-11-13T11:40:34;4.57;;;1.75;;
73893;SDS011;62699;50.534;12.784;2022-11-13T11:45:41;2.50;;;1.67;;
73893;SDS011;62699;50.534;12.784;2022-11-13T11:50:46;3.00;;;1.50;;
73893;SDS011;62699;50.534;12.784;2022-11-13T12:01:03;1.65;;;1.30;;
73893;SDS011;62699;50.534;12.784;2022-11-13T12:06:25;1.20;;;1.15;;
73893;SDS011;62699;50.534;12.784;2022-11-13T12:11:37;1.33;;;1.10;;
73893;SDS011;62699;50.534;12.784;2022-11-13T12:22:15;3.15;;;1.30;;
73893;SDS011;62699;50.534;12.784;2022-11-13T12:27:29;2.13;;;1.10;;
73893;SDS011;62699;50.534;12.784;2022-11-13T12:38:34;1.33;;;1.00;;
73893;SDS011;62699;50.534;12.784;2022-11-13T12:49:40;1.73;;;1.25;;
73893;SDS011;62699;50.534;12.784;2022-11-13T12:54:35;1.55;;;1.00;;
73893;SDS011;62699;50.534;12.784;2022-11-13T12:59:37;1.88;;;1.27;;
73893;SDS011;62699;50.534;12.784;2022-11-13T13:10:40;2.05;;;0.98;;
73893;SDS011;62699;50.534;12.784;2022-11-13T13:15:53;6.50;;;3.97;;
73893;SDS011;62699;50.534;12.784;2022-11-13T13:36:46;26.67;;;15.18;;
73893;SDS011;62699;50.534;12.784;2022-11-13T13:41:59;30.98;;;26.20;;
73893;SDS011;62699;50.534;12.784;2022-11-13T13:52:30;18.02;;;8.68;;
73893;SDS011;62699;50.534;12.784;2022-11-13T13:57:37;18.50;;;9.43;;
73893;SDS011;62699;50.534;12.784;2022-11-13T14:02:46;8.88;;;3.97;;
73893;SDS011;62699;50.534;12.784;2022-11-13T14:07:49;13.80;;;6.38;;
73893;SDS011;62699;50.534;12.784;2022-11-13T14:13:00;7.07;;;3.28;;
73893;SDS011;62699;50.534;12.784;2022-11-13T14:18:06;13.60;;;8.80;;
73893;SDS011;62699;50.534;12.784;2022-11-13T14:23:31;16.92;;;9.95;;
73893;SDS011;62699;50.534;12.784;2022-11-13T14:28:48;27.33;;;18.10;;
73893;SDS011;62699;50.534;12.784;2022-11-13T14:33:55;37.63;;;25.95;;
73893;SDS011;62699;50.534;12.784;2022-11-13T14:38:57;15.48;;;8.80;;
73893;SDS011;62699;50.534;12.784;2022-11-13T14:43:58;115.97;;;58.80;;
73893;SDS011;62699;50.534;12.784;2022-11-13T14:48:59;19.55;;;11.85;;
73893;SDS011;62699;50.534;12.784;2022-11-13T14:54:04;13.13;;;6.87;;
73893;SDS011;62699;50.534;12.784;2022-11-13T14:59:06;9.13;;;4.85;;
73893;SDS011;62699;50.534;12.784;2022-11-13T15:04:06;8.00;;;3.53;;
73893;SDS011;62699;50.534;12.784;2022-11-13T15:09:11;7.45;;;4.43;;
73893;SDS011;62699;50.534;12.784;2022-11-13T15:14:14;8.45;;;3.97;;
73893;SDS011;62699;50.534;12.784;2022-11-13T15:19:32;8.05;;;4.07;;
73893;SDS011;62699;50.534;12.784;2022-11-13T15:24:36;35.33;;;22.95;;
73893;SDS011;62699;50.534;12.784;2022-11-13T15:29:37;20.38;;;12.27;;
73893;SDS011;62699;50.534;12.784;2022-11-13T15:34:37;16.67;;;8.48;;
73893;SDS011;62699;50.534;12.784;2022-11-13T15:39:38;60.30;;;38.28;;
73893;SDS011;62699;50.534;12.784;2022-11-13T15:44:38;176.30;;;102.97;;
73893;SDS011;62699;50.534;12.784;2022-11-13T15:49:39;218.52;;;131.40;;
73893;SDS011;62699;50.534;12.784;2022-11-13T15:54:40;102.55;;;65.28;;
73893;SDS011;62699;50.534;12.784;2022-11-13T15:59:40;57.97;;;36.47;;
73893;SDS011;62699;50.534;12.784;2022-11-13T16:04:40;55.97;;;36.63;;
73893;SDS011;62699;50.534;12.784;2022-11-13T16:09:41;43.50;;;26.52;;
73893;SDS011;62699;50.534;12.784;2022-11-13T16:14:41;38.22;;;23.75;;
73893;SDS011;62699;50.534;12.784;2022-11-13T16:19:41;38.70;;;21.48;;
73893;SDS011;62699;50.534;12.784;2022-11-13T16:24:42;21.02;;;13.32;;
73893;SDS011;62699;50.534;12.784;2022-11-13T16:29:43;21.60;;;11.32;;
73893;SDS011;62699;50.534;12.784;2022-11-13T16:34:43;23.20;;;12.15;;
73893;SDS011;62699;50.534;12.784;2022-11-13T16:44:56;17.40;;;11.13;;
73893;SDS011;62699;50.534;12.784;2022-11-13T16:49:57;16.88;;;8.75;;
73893;SDS011;62699;50.534;12.784;2022-11-13T16:54:59;16.23;;;9.35;;
73893;SDS011;62699;50.534;12.784;2022-11-13T16:59:59;15.25;;;7.88;;
73893;SDS011;62699;50.534;12.784;2022-11-13T17:05:00;23.42;;;13.85;;
73893;SDS011;62699;50.534;12.784;2022-11-13T17:10:00;35.08;;;19.60;;
73893;SDS011;62699;50.534;12.784;2022-11-13T17:15:00;23.05;;;13.43;;
73893;SDS011;62699;50.534;12.784;2022-11-13T17:20:01;34.20;;;20.77;;
73893;SDS011;62699;50.534;12.784;2022-11-13T17:25:01;86.68;;;47.28;;
73893;SDS011;62699;50.534;12.784;2022-11-13T17:30:10;28.80;;;16.73;;
73893;SDS011;62699;50.534;12.784;2022-11-13T17:35:11;17.70;;;9.65;;
73893;SDS011;62699;50.534;12.784;2022-11-13T17:40:12;19.02;;;10.18;;
73893;SDS011;62699;50.534;12.784;2022-11-13T17:45:12;18.88;;;11.00;;
73893;SDS011;62699;50.534;12.784;2022-11-13T17:50:13;21.17;;;12.57;;
73893;SDS011;62699;50.534;12.784;2022-11-13T17:55:14;20.08;;;11.00;;
73893;SDS011;62699;50.534;12.784;2022-11-13T18:05:18;25.55;;;13.63;;
73893;SDS011;62699;50.534;12.784;2022-11-13T18:10:19;21.95;;;12.82;;
73893;SDS011;62699;50.534;12.784;2022-11-13T18:15:19;22.90;;;13.73;;
73893;SDS011;62699;50.534;12.784;2022-11-13T18:20:19;21.25;;;13.70;;
73893;SDS011;62699;50.534;12.784;2022-11-13T18:25:20;27.70;;;15.98;;
73893;SDS011;62699;50.534;12.784;2022-11-13T18:30:20;25.40;;;15.45;;
73893;SDS011;62699;50.534;12.784;2022-11-13T18:35:21;30.75;;;17.35;;
73893;SDS011;62699;50.534;12.784;2022-11-13T18:40:22;30.90;;;17.40;;
73893;SDS011;62699;50.534;12.784;2022-11-13T18:45:22;28.92;;;16.40;;
73893;SDS011;62699;50.534;12.784;2022-11-13T18:55:58;35.90;;;21.08;;
73893;SDS011;62699;50.534;12.784;2022-11-13T19:01:06;32.42;;;17.83;;
73893;SDS011;62699;50.534;12.784;2022-11-13T19:06:08;34.23;;;18.17;;
73893;SDS011;62699;50.534;12.784;2022-11-13T19:11:12;31.65;;;16.45;;
73893;SDS011;62699;50.534;12.784;2022-11-13T19:16:18;28.23;;;17.02;;
73893;SDS011;62699;50.534;12.784;2022-11-13T19:21:20;26.52;;;16.10;;
73893;SDS011;62699;50.534;12.784;2022-11-13T19:26:23;25.30;;;15.05;;
73893;SDS011;62699;50.534;12.784;2022-11-13T19:31:25;26.23;;;15.48;;
73893;SDS011;62699;50.534;12.784;2022-11-13T19:36:26;20.70;;;13.48;;
73893;SDS011;62699;50.534;12.784;2022-11-13T19:41:28;22.85;;;13.50;;
73893;SDS011;62699;50.534;12.784;2022-11-13T19:46:29;25.88;;;15.25;;
73893;SDS011;62699;50.534;12.784;2022-11-13T19:51:31;25.27;;;16.70;;
73893;SDS011;62699;50.534;12.784;2022-11-13T19:56:31;22.73;;;14.98;;
73893;SDS011;62699;50.534;12.784;2022-11-13T20:01:31;24.52;;;15.13;;
73893;SDS011;62699;50.534;12.784;2022-11-13T20:06:32;24.02;;;14.43;;
73893;SDS011;62699;50.534;12.784;2022-11-13T20:11:32;24.08;;;14.55;;
73893;SDS011;62699;50.534;12.784;2022-11-13T20:16:33;22.30;;;14.05;;
73893;SDS011;62699;50.534;12.784;2022-11-13T20:21:33;22.88;;;15.02;;
73893;SDS011;62699;50.534;12.784;2022-11-13T20:26:33;23.58;;;14.43;;
73893;SDS011;62699;50.534;12.784;2022-11-13T20:31:34;20.13;;;12.80;;
73893;SDS011;62699;50.534;12.784;2022-11-13T20:36:34;25.08;;;14.00;;
73893;SDS011;62699;50.534;12.784;2022-11-13T20:41:35;22.85;;;13.50;;
73893;SDS011;62699;50.534;12.784;2022-11-13T20:46:36;34.58;;;18.73;;
73893;SDS011;62699;50.534;12.784;2022-11-13T20:51:36;31.15;;;16.30;;
73893;SDS011;62699;50.534;12.784;2022-11-13T20:56:36;33.18;;;16.08;;
73893;SDS011;62699;50.534;12.784;2022-11-13T21:01:37;33.38;;;17.25;;
73893;SDS011;62699;50.534;12.784;2022-11-13T21:06:37;41.58;;;18.60;;
73893;SDS011;62699;50.534;12.784;2022-11-13T21:11:37;30.88;;;16.42;;
73893;SDS011;62699;50.534;12.784;2022-11-13T21:16:38;29.55;;;15.75;;
73893;SDS011;62699;50.534;12.784;2022-11-13T21:21:38;29.27;;;15.48;;
73893;SDS011;62699;50.534;12.784;2022-11-13T21:26:39;27.13;;;15.57;;
73893;SDS011;62699;50.534;12.784;2022-11-13T21:31:57;26.75;;;14.25;;
73893;SDS011;62699;50.534;12.784;2022-11-13T21:36:57;26.02;;;14.20;;
73893;SDS011;62699;50.534;12.784;2022-11-13T21:41:58;24.02;;;12.68;;
73893;SDS011;62699;50.534;12.784;2022-11-13T21:46:58;22.77;;;12.43;;
73893;SDS011;62699;50.534;12.784;2022-11-13T21:51:58;23.73;;;13.80;;
73893;SDS011;62699;50.534;12.784;2022-11-13T21:56:59;26.20;;;15.32;;
73893;SDS011;62699;50.534;12.784;2022-11-13T22:01:59;22.15;;;12.90;;
73893;SDS011;62699;50.534;12.784;2022-11-13T22:06:59;21.70;;;12.55;;
73893;SDS011;62699;50.534;12.784;2022-11-13T22:12:00;25.00;;;12.95;;
73893;SDS011;62699;50.534;12.784;2022-11-13T22:17:00;24.60;;;13.70;;
73893;SDS011;62699;50.534;12.784;2022-11-13T22:22:00;24.00;;;13.48;;
73893;SDS011;62699;50.534;12.784;2022-11-13T22:27:18;23.17;;;12.90;;
73893;SDS011;62699;50.534;12.784;2022-11-13T22:32:19;23.98;;;13.23;;
73893;SDS011;62699;50.534;12.784;2022-11-13T22:37:19;22.35;;;12.27;;
73893;SDS011;62699;50.534;12.784;2022-11-13T22:42:19;22.17;;;13.13;;
73893;SDS011;62699;50.534;12.784;2022-11-13T22:47:19;20.55;;;12.02;;
73893;SDS011;62699;50.534;12.784;2022-11-13T22:52:20;22.17;;;12.30;;
73893;SDS011;62699;50.534;12.784;2022-11-13T22:57:20;19.27;;;11.85;;
73893;SDS011;62699;50.534;12.784;2022-11-13T23:02:20;20.73;;;12.38;;
73893;SDS011;62699;50.534;12.784;2022-11-13T23:07:21;19.05;;;11.52;;
73893;SDS011;62699;50.534;12.784;2022-11-13T23:12:28;17.45;;;10.43;;
73893;SDS011;62699;50.534;12.784;2022-11-13T23:17:29;18.85;;;11.68;;
73893;SDS011;62699;50.534;12.784;2022-11-13T23:22:29;16.70;;;10.27;;
73893;SDS011;62699;50.534;12.784;2022-11-13T23:27:29;16.88;;;10.55;;
73893;SDS011;62699;50.534;12.784;2022-11-13T23:32:40;16.05;;;10.55;;
73893;SDS011;62699;50.534;12.784;2022-11-13T23:42:41;18.35;;;10.40;;
73893;SDS011;62699;50.534;12.784;2022-11-13T23:47:41;17.88;;;10.50;;
73893;SDS011;62699;50.534;12.784;2022-11-13T23:52:42;17.17;;;10.40;;
73893;SDS011;62699;50.534;12.784;2022-11-13T23:57:42;17.38;;;10.68;;
